createdAt,value
2022-12-23T00:00:11.403Z,71.00
2022-12-23T00:02:38.620Z,64.07
2022-12-23T00:05:06.451Z,69.43
2022-12-23T00:07:33.125Z,69.40
2022-12-23T00:09:59.764Z,65.93
2022-12-23T00:12:45.019Z,64.90
2022-12-23T00:15:12.626Z,66.20
2022-12-23T00:17:44.952Z,67.43
2022-12-23T00:20:14.635Z,66.00
2022-12-23T00:23:00.406Z,67.00
2022-12-23T00:25:42.207Z,61.10
2022-12-23T00:28:20.814Z,62.80
2022-12-23T00:31:02.485Z,59.10
2022-12-23T00:33:31.883Z,65.90
2022-12-23T00:35:58.633Z,63.13
2022-12-23T00:38:44.118Z,65.43
2022-12-23T00:41:31.447Z,61.20
2022-12-23T00:43:58.642Z,64.38
2022-12-23T00:46:25.436Z,65.13
2022-12-23T00:49:10.653Z,64.38
2022-12-23T00:54:04.210Z,59.00
2022-12-23T00:56:33.749Z,63.65
2022-12-23T00:59:00.701Z,66.85
2022-12-23T01:01:46.188Z,61.35
2022-12-23T01:04:49.640Z,63.03
2022-12-23T01:07:16.284Z,70.80
2022-12-23T01:09:42.932Z,73.43
2022-12-23T01:12:09.502Z,75.28
2022-12-23T01:14:36.534Z,77.20
2022-12-23T01:17:03.563Z,86.95
2022-12-23T01:19:30.238Z,84.78
2022-12-23T01:21:56.791Z,81.82
2022-12-23T01:24:23.557Z,80.40
2022-12-23T01:26:50.113Z,82.70
2022-12-23T01:29:16.658Z,79.40
2022-12-23T01:31:43.267Z,78.60
2022-12-23T01:34:10.523Z,80.15
2022-12-23T01:36:37.540Z,77.07
2022-12-23T01:39:04.327Z,75.93
2022-12-23T01:41:51.773Z,76.90
2022-12-23T01:44:46.012Z,72.28
2022-12-23T01:47:18.906Z,75.28
2022-12-23T01:49:46.459Z,68.03
2022-12-23T01:52:14.302Z,69.60
2022-12-23T01:54:41.586Z,68.03
2022-12-23T01:57:08.212Z,68.25
2022-12-23T01:59:53.533Z,67.75
2022-12-23T02:02:40.073Z,63.70
2022-12-23T02:05:08.309Z,64.00
2022-12-23T02:07:54.481Z,65.53
2022-12-23T02:10:26.795Z,65.50
2022-12-23T02:13:11.472Z,66.28
2022-12-23T02:16:13.913Z,68.47
2022-12-23T02:18:55.447Z,63.42
2022-12-23T02:21:40.704Z,64.60
2022-12-23T02:24:31.357Z,65.93
2022-12-23T02:27:13.131Z,61.00
2022-12-23T02:29:51.544Z,60.95
2022-12-23T02:32:27.350Z,58.70
2022-12-23T02:35:25.400Z,57.20
2022-12-23T02:38:04.042Z,56.10
2022-12-23T02:40:51.583Z,62.22
2022-12-23T02:43:47.526Z,64.28
2022-12-23T02:46:28.237Z,65.70
2022-12-23T02:49:03.359Z,67.30
2022-12-23T02:51:36.632Z,65.47
2022-12-23T02:54:08.735Z,67.82
2022-12-23T02:56:37.452Z,66.57
2022-12-23T02:59:12.232Z,72.07
2022-12-23T03:04:08.912Z,76.75
2022-12-23T03:06:40.598Z,76.32
2022-12-23T03:09:07.497Z,80.07
2022-12-23T03:11:52.920Z,77.07
2022-12-23T03:14:41.363Z,77.50
2022-12-23T03:17:10.876Z,81.68
2022-12-23T03:19:45.270Z,84.20
2022-12-23T03:22:29.843Z,80.57
2022-12-23T03:25:05.825Z,75.85
2022-12-23T03:27:48.515Z,86.10
2022-12-23T03:30:18.656Z,87.40
2022-12-23T03:32:49.819Z,85.85
2022-12-23T03:35:20.248Z,81.65
2022-12-23T03:37:50.918Z,87.57
2022-12-23T03:40:28.173Z,87.20
2022-12-23T03:43:02.190Z,86.35
2022-12-23T03:45:40.309Z,82.20
2022-12-23T03:48:18.991Z,85.82
2022-12-23T03:50:48.665Z,84.07
2022-12-23T03:53:38.097Z,85.25
2022-12-23T03:56:17.119Z,86.75
2022-12-23T03:58:51.272Z,84.95
2022-12-23T04:01:42.557Z,89.57
2022-12-23T04:04:24.200Z,82.15
2022-12-23T04:07:22.811Z,80.72
2022-12-23T04:09:52.568Z,79.93
2022-12-23T04:12:21.410Z,83.13
2022-12-23T04:14:49.286Z,87.72
2022-12-23T04:17:17.348Z,90.03
2022-12-23T04:19:48.154Z,86.45
2022-12-23T04:22:16.046Z,86.45
2022-12-23T04:24:43.500Z,82.70
2022-12-23T04:27:13.086Z,84.18
2022-12-23T04:29:39.753Z,86.68
2022-12-23T04:32:07.605Z,89.05
2022-12-23T04:34:34.357Z,85.70
2022-12-23T04:37:01.135Z,91.03
2022-12-23T04:39:27.900Z,86.38
2022-12-23T04:41:54.689Z,90.13
2022-12-23T04:44:21.305Z,92.18
2022-12-23T04:46:47.926Z,86.93
2022-12-23T04:49:14.525Z,89.00
2022-12-23T04:51:41.064Z,87.25
2022-12-23T04:54:07.678Z,91.03
2022-12-23T04:56:34.204Z,83.25
2022-12-23T04:59:02.372Z,76.88
2022-12-23T05:01:29.765Z,72.63
2022-12-23T05:03:56.461Z,75.68
2022-12-23T05:06:23.091Z,75.82
2022-12-23T05:08:49.712Z,68.65
2022-12-23T05:11:16.242Z,70.57
2022-12-23T05:13:42.913Z,70.88
2022-12-23T05:16:09.573Z,73.80
2022-12-23T05:18:36.144Z,71.28
2022-12-23T05:21:02.770Z,70.15
2022-12-23T05:23:29.363Z,66.35
2022-12-23T05:25:55.995Z,66.30
2022-12-23T05:28:23.492Z,65.93
2022-12-23T05:30:57.000Z,65.15
2022-12-23T05:33:23.603Z,64.60
2022-12-23T05:35:50.272Z,67.70
2022-12-23T05:38:16.810Z,64.60
2022-12-23T05:40:43.340Z,69.70
2022-12-23T05:43:09.932Z,67.90
2022-12-23T05:45:36.757Z,68.82
2022-12-23T05:48:03.404Z,69.38
2022-12-23T05:50:30.060Z,72.57
2022-12-23T05:52:57.718Z,66.53
2022-12-23T05:55:26.235Z,74.88
2022-12-23T05:57:53.088Z,71.18
2022-12-23T06:00:20.552Z,71.28
2022-12-23T06:02:53.296Z,71.47
2022-12-23T06:05:20.570Z,73.38
2022-12-23T06:07:47.124Z,69.25
2022-12-23T06:10:13.700Z,67.03
2022-12-23T06:12:40.284Z,68.93
2022-12-23T06:15:07.703Z,68.47
2022-12-23T06:17:34.312Z,66.10
2022-12-23T06:20:01.050Z,69.10
2022-12-23T06:22:27.655Z,71.97
2022-12-23T06:24:54.245Z,68.80
2022-12-23T06:27:20.878Z,68.82
2022-12-23T06:29:48.092Z,66.90
2022-12-23T06:32:14.962Z,65.45
2022-12-23T06:34:41.669Z,69.05
2022-12-23T06:37:08.400Z,66.15
2022-12-23T06:39:35.440Z,67.05
2022-12-23T06:42:03.270Z,67.97
2022-12-23T06:44:29.910Z,67.85
2022-12-23T06:46:56.486Z,69.32
2022-12-23T06:49:23.025Z,69.13
2022-12-23T06:51:49.616Z,69.05
2022-12-23T06:54:16.169Z,67.05
2022-12-23T06:56:42.948Z,67.03
2022-12-23T06:59:09.491Z,66.93
2022-12-23T07:01:36.163Z,64.28
2022-12-23T07:04:03.159Z,64.30
2022-12-23T07:06:29.846Z,63.78
2022-12-23T07:08:56.419Z,63.78
2022-12-23T07:11:22.980Z,65.47
2022-12-23T07:13:49.684Z,62.22
2022-12-23T07:16:16.291Z,61.17
2022-12-23T07:18:42.982Z,60.85
2022-12-23T07:21:19.718Z,58.33
2022-12-23T07:23:51.325Z,56.30
2022-12-23T07:26:17.913Z,59.38
2022-12-23T07:28:48.752Z,58.60
2022-12-23T07:31:15.771Z,60.45
2022-12-23T07:33:42.560Z,60.75
2022-12-23T07:36:09.548Z,66.05
2022-12-23T07:38:36.372Z,64.40
2022-12-23T07:41:03.183Z,66.45
2022-12-23T07:43:29.840Z,64.40
2022-12-23T07:46:00.470Z,65.03
2022-12-23T07:48:27.512Z,68.53
2022-12-23T07:51:00.634Z,68.80
2022-12-23T07:53:27.279Z,69.70
2022-12-23T07:55:56.822Z,70.72
2022-12-23T07:58:24.202Z,68.13
2022-12-23T08:00:50.777Z,65.68
2022-12-23T08:03:17.827Z,73.20
2022-12-23T08:05:44.537Z,69.25
2022-12-23T08:08:11.152Z,74.38
2022-12-23T08:10:41.433Z,77.13
2022-12-23T08:13:11.183Z,73.28
2022-12-23T08:15:37.767Z,76.20
2022-12-23T08:18:04.437Z,78.93
2022-12-23T08:20:31.011Z,76.53
2022-12-23T08:22:57.556Z,79.15
2022-12-23T08:25:24.133Z,84.93
2022-12-23T08:27:51.392Z,151.43
2022-12-23T08:30:18.913Z,73.20
2022-12-23T08:32:45.499Z,76.63
2022-12-23T08:35:12.103Z,78.28
2022-12-23T08:37:38.754Z,76.38
2022-12-23T08:40:05.962Z,71.78
2022-12-23T08:42:32.552Z,79.13
2022-12-23T08:45:00.057Z,79.25
2022-12-23T08:47:26.644Z,89.60
2022-12-23T08:49:53.246Z,78.95
2022-12-23T08:52:22.147Z,82.10
2022-12-23T08:54:48.719Z,81.72
2022-12-23T08:57:15.293Z,81.53
2022-12-23T08:59:42.097Z,85.68
2022-12-23T09:02:11.790Z,78.82
2022-12-23T09:04:38.477Z,81.43
2022-12-23T09:07:05.983Z,82.55
2022-12-23T09:09:32.595Z,83.60
2022-12-23T09:11:59.168Z,90.72
2022-12-23T09:14:25.751Z,86.20
2022-12-23T09:16:52.621Z,87.88
2022-12-23T09:19:20.495Z,86.82
2022-12-23T09:21:48.199Z,84.15
2022-12-23T09:24:14.828Z,82.75
2022-12-23T09:26:41.437Z,84.72
2022-12-23T09:29:08.013Z,85.57
2022-12-23T09:31:37.731Z,81.63
2022-12-23T09:34:05.500Z,82.13
2022-12-23T09:36:32.198Z,81.95
2022-12-23T09:38:59.280Z,84.95
2022-12-23T09:41:48.421Z,82.18
2022-12-23T09:44:41.762Z,81.43
2022-12-23T09:47:15.705Z,78.95
2022-12-23T09:50:00.601Z,84.45
2022-12-23T09:52:45.928Z,82.85
2022-12-23T09:55:15.304Z,82.50
2022-12-23T09:58:09.075Z,76.05
2022-12-23T10:00:42.800Z,76.22
2022-12-23T10:03:15.440Z,79.35
2022-12-23T10:05:57.178Z,77.63
2022-12-23T10:08:44.563Z,78.10
2022-12-23T10:11:21.208Z,77.65
2022-12-23T10:13:52.410Z,80.22
2022-12-23T10:16:25.787Z,79.40
2022-12-23T10:19:01.624Z,75.50
2022-12-23T10:21:52.466Z,81.90
2022-12-23T10:24:24.240Z,80.13
2022-12-23T10:26:58.093Z,81.43
2022-12-23T10:29:27.029Z,82.93
2022-12-23T10:32:17.585Z,79.32
2022-12-23T10:35:13.519Z,80.45
2022-12-23T10:38:17.572Z,82.55
2022-12-23T10:40:45.437Z,79.13
2022-12-23T10:43:18.035Z,83.82
2022-12-23T10:46:10.430Z,83.70
2022-12-23T10:48:36.953Z,82.30
2022-12-23T10:51:12.912Z,85.00
2022-12-23T10:53:47.631Z,84.90
2022-12-23T10:56:15.104Z,87.35
2022-12-23T10:58:44.876Z,86.75
2022-12-23T11:01:25.726Z,83.15
2022-12-23T11:04:32.496Z,85.32
2022-12-23T11:07:26.467Z,83.90
2022-12-23T11:10:08.086Z,84.20
2022-12-23T11:12:47.453Z,84.40
2022-12-23T11:15:37.818Z,84.88
2022-12-23T11:18:18.403Z,83.30
2022-12-23T11:21:01.282Z,76.22
2022-12-23T11:23:36.884Z,92.80
2022-12-23T11:26:10.050Z,80.32
2022-12-23T11:28:40.092Z,83.68
2022-12-23T11:31:12.284Z,83.38
2022-12-23T11:33:46.479Z,104.65
2022-12-23T11:36:12.988Z,81.45
2022-12-23T11:39:17.858Z,84.20
2022-12-23T11:41:50.333Z,82.93
2022-12-23T11:44:26.034Z,80.35
2022-12-23T11:46:52.790Z,80.88
2022-12-23T11:49:29.211Z,82.57
2022-12-23T11:52:12.046Z,84.20
2022-12-23T11:54:39.183Z,85.95
2022-12-23T11:57:19.004Z,85.88
2022-12-23T11:59:52.828Z,84.38
2022-12-23T12:02:40.744Z,83.40
2022-12-23T12:05:22.680Z,86.53
2022-12-23T12:07:51.301Z,84.93
2022-12-23T12:10:28.170Z,87.82
2022-12-23T12:13:26.673Z,86.22
2022-12-23T12:16:07.798Z,89.63
2022-12-23T12:18:35.309Z,173.40
2022-12-23T12:21:07.387Z,87.32
2022-12-23T12:23:39.688Z,91.50
2022-12-23T12:26:13.733Z,88.22
2022-12-23T12:28:43.463Z,88.78
2022-12-23T12:31:17.917Z,91.32
2022-12-23T12:33:54.102Z,88.82
2022-12-23T12:36:39.288Z,89.03
2022-12-23T12:39:17.297Z,88.18
2022-12-23T12:42:01.784Z,89.43
2022-12-23T12:44:46.228Z,90.80
2022-12-23T12:47:52.120Z,90.40
2022-12-23T12:50:19.329Z,89.82
2022-12-23T12:52:45.965Z,93.75
2022-12-23T12:55:28.700Z,91.15
2022-12-23T12:57:55.530Z,87.30
2022-12-23T13:00:24.303Z,88.65
2022-12-23T13:03:15.441Z,84.65
2022-12-23T13:06:15.216Z,93.55
2022-12-23T13:09:00.306Z,82.25
2022-12-23T13:14:34.683Z,90.35
2022-12-23T13:17:20.879Z,97.72
2022-12-23T13:20:25.250Z,92.93
2022-12-23T13:23:06.355Z,90.93
2022-12-23T13:25:49.902Z,92.65
2022-12-23T13:28:41.899Z,91.93
2022-12-23T13:31:35.615Z,92.43
2022-12-23T13:34:21.477Z,97.63
2022-12-23T13:36:57.192Z,96.25
2022-12-23T13:39:29.760Z,97.60
2022-12-23T13:42:05.087Z,97.65
2022-12-23T13:44:35.096Z,96.72
2022-12-23T13:47:23.281Z,93.97
2022-12-23T13:50:08.312Z,94.53
2022-12-23T13:56:08.179Z,96.90
2022-12-23T13:58:35.512Z,99.68
2022-12-23T14:01:31.863Z,101.45
2022-12-23T14:04:56.438Z,101.55
2022-12-23T14:07:23.753Z,99.70
2022-12-23T14:09:59.443Z,103.72
2022-12-23T14:12:34.401Z,106.65
2022-12-23T14:15:31.949Z,106.82
2022-12-23T14:18:09.820Z,105.28
2022-12-23T14:20:45.306Z,103.60
2022-12-23T14:23:33.423Z,103.80
2022-12-23T14:26:06.071Z,102.93
2022-12-23T14:29:02.980Z,99.07
2022-12-23T14:31:31.346Z,97.18
2022-12-23T14:34:31.289Z,95.70
2022-12-23T14:37:15.890Z,94.85
2022-12-23T14:39:43.439Z,93.60
2022-12-23T14:42:14.966Z,90.82
2022-12-23T14:44:46.374Z,92.35
2022-12-23T14:47:36.082Z,96.20
2022-12-23T14:50:37.017Z,96.95
2022-12-23T14:53:29.509Z,97.68
2022-12-23T14:56:08.162Z,100.30
2022-12-23T14:58:45.424Z,98.25
2022-12-23T15:01:23.946Z,99.05
2022-12-23T15:03:57.568Z,99.43
2022-12-23T15:06:43.259Z,97.18
2022-12-23T15:09:20.336Z,100.65
2022-12-23T15:11:47.260Z,101.20
2022-12-23T15:14:23.425Z,99.25
2022-12-23T15:16:50.048Z,98.97
2022-12-23T15:19:23.545Z,99.50
2022-12-23T15:21:59.613Z,94.57
2022-12-23T15:24:29.860Z,93.40
2022-12-23T15:27:26.093Z,94.05
2022-12-23T15:29:49.500Z,89.90
2022-12-23T15:32:19.233Z,91.88
2022-12-23T15:34:48.246Z,93.15
2022-12-23T15:37:24.731Z,96.35
2022-12-23T15:39:57.225Z,94.32
2022-12-23T15:42:38.526Z,96.93
2022-12-23T15:45:26.047Z,96.60
2022-12-23T15:47:52.754Z,93.78
2022-12-23T15:50:19.733Z,97.53
2022-12-23T15:52:48.895Z,98.72
2022-12-23T15:55:27.806Z,94.63
2022-12-23T15:57:54.915Z,94.15
2022-12-23T16:00:50.948Z,96.40
2022-12-23T16:03:25.506Z,94.10
2022-12-23T16:05:52.745Z,92.50
2022-12-23T16:08:30.114Z,97.20
2022-12-23T16:11:17.847Z,87.15
2022-12-23T16:13:58.319Z,91.32
2022-12-23T16:16:41.305Z,90.13
2022-12-23T16:19:37.577Z,96.18
2022-12-23T16:22:28.493Z,93.38
2022-12-23T16:25:10.096Z,97.20
2022-12-23T16:27:40.154Z,96.20
2022-12-23T16:30:34.331Z,94.38
2022-12-23T16:33:06.974Z,94.07
2022-12-23T16:35:42.872Z,94.22
2022-12-23T16:38:22.996Z,92.65
2022-12-23T16:40:51.956Z,93.93
2022-12-23T16:43:19.412Z,92.70
2022-12-23T16:45:50.063Z,91.50
2022-12-23T16:48:24.418Z,90.65
2022-12-23T16:50:52.492Z,86.55
2022-12-23T16:53:19.493Z,91.70
2022-12-23T16:55:52.352Z,89.80
2022-12-23T16:58:23.471Z,88.55
2022-12-23T17:00:51.624Z,89.97
2022-12-23T17:03:19.360Z,89.25
2022-12-23T17:05:47.163Z,90.78
2022-12-23T17:08:13.875Z,87.28
2022-12-23T17:10:42.200Z,87.13
2022-12-23T17:13:11.913Z,85.13
2022-12-23T17:15:38.769Z,82.93
2022-12-23T17:18:12.629Z,80.30
2022-12-23T17:20:39.373Z,79.00
2022-12-23T17:23:06.727Z,79.72
2022-12-23T17:25:33.320Z,83.13
2022-12-23T17:27:59.887Z,84.25
2022-12-23T17:30:26.500Z,81.95
2022-12-23T17:32:58.293Z,80.68
2022-12-23T17:35:26.839Z,81.60
2022-12-23T17:37:53.702Z,87.40
2022-12-23T17:40:20.510Z,83.50
2022-12-23T17:42:47.774Z,83.15
2022-12-23T17:45:27.701Z,84.30
2022-12-23T17:47:54.724Z,87.82
2022-12-23T17:50:22.266Z,92.50
2022-12-23T17:52:49.349Z,90.68
2022-12-23T17:55:19.572Z,90.55
2022-12-23T17:57:48.053Z,89.53
2022-12-23T18:00:25.175Z,90.05
2022-12-23T18:02:56.337Z,85.93
2022-12-23T18:05:31.387Z,91.65
2022-12-23T18:08:00.683Z,88.60
2022-12-23T18:10:30.767Z,88.82
2022-12-23T18:13:04.892Z,89.72
2022-12-23T18:15:40.698Z,86.45
2022-12-23T18:18:20.456Z,89.78
2022-12-23T18:20:52.851Z,87.38
2022-12-23T18:23:25.006Z,91.53
2022-12-23T18:25:51.665Z,89.47
2022-12-23T18:28:18.245Z,87.13
2022-12-23T18:30:45.038Z,89.07
2022-12-23T18:33:13.274Z,86.45
2022-12-23T18:35:44.055Z,83.88
2022-12-23T18:38:11.912Z,84.68
2022-12-23T18:40:40.094Z,86.90
2022-12-23T18:43:07.127Z,86.80
2022-12-23T18:45:46.556Z,88.43
2022-12-23T18:48:15.799Z,86.88
2022-12-23T18:50:44.396Z,86.85
2022-12-23T18:53:23.328Z,85.43
2022-12-23T18:55:51.888Z,85.55
2022-12-23T18:58:19.085Z,85.15
2022-12-23T19:00:47.026Z,87.97
2022-12-23T19:03:30.247Z,86.30
2022-12-23T19:06:01.773Z,86.50
2022-12-23T19:08:28.349Z,94.22
2022-12-23T19:10:55.736Z,86.47
2022-12-23T19:13:22.586Z,85.57
2022-12-23T19:15:49.470Z,87.53
2022-12-23T19:18:18.588Z,89.88
2022-12-23T19:20:46.299Z,91.20
2022-12-23T19:23:13.908Z,88.97
2022-12-23T19:25:42.474Z,91.05
2022-12-23T19:28:09.703Z,91.57
2022-12-23T19:30:36.601Z,89.13
2022-12-23T19:33:03.255Z,90.75
2022-12-23T19:35:29.881Z,88.78
2022-12-23T19:37:58.783Z,90.70
2022-12-23T19:40:25.421Z,92.03
2022-12-23T19:42:51.957Z,90.22
2022-12-23T19:45:18.581Z,88.78
2022-12-23T19:47:45.144Z,92.13
2022-12-23T19:50:12.458Z,89.40
2022-12-23T19:52:39.070Z,89.63
2022-12-23T19:55:06.066Z,85.00
2022-12-23T19:57:33.423Z,86.28
2022-12-23T20:00:01.830Z,87.75
2022-12-23T20:02:28.753Z,86.60
2022-12-23T20:04:55.342Z,89.00
2022-12-23T20:07:21.960Z,85.72
2022-12-23T20:09:48.548Z,83.43
2022-12-23T20:12:15.233Z,89.35
2022-12-23T20:14:41.814Z,86.32
2022-12-23T20:17:08.375Z,85.53
2022-12-23T20:19:39.142Z,85.05
2022-12-23T20:22:10.378Z,87.00
2022-12-23T20:24:37.177Z,86.53
2022-12-23T20:27:07.941Z,83.70
2022-12-23T20:29:38.170Z,85.80
2022-12-23T20:32:04.951Z,87.10
2022-12-23T20:34:36.668Z,85.82
2022-12-23T20:37:06.475Z,85.32
2022-12-23T20:39:33.278Z,86.85
2022-12-23T20:41:59.869Z,88.07
2022-12-23T20:44:35.805Z,86.85
2022-12-23T20:47:05.567Z,87.65
2022-12-23T20:49:33.842Z,86.32
2022-12-23T20:52:00.664Z,88.38
2022-12-23T20:54:32.538Z,87.78
2022-12-23T20:56:59.583Z,88.32
2022-12-23T20:59:26.165Z,90.70
2022-12-23T21:01:52.870Z,89.70
2022-12-23T21:04:20.511Z,85.18
2022-12-23T21:06:47.166Z,86.35
2022-12-23T21:09:15.574Z,86.78
2022-12-23T21:11:45.230Z,85.32
2022-12-23T21:14:13.170Z,84.50
2022-12-23T21:16:40.408Z,89.57
2022-12-23T21:19:09.390Z,89.15
2022-12-23T21:21:35.974Z,87.75
2022-12-23T21:24:04.773Z,87.05
2022-12-23T21:26:33.774Z,88.28
2022-12-23T21:29:02.010Z,89.72
2022-12-23T21:31:30.417Z,89.50
2022-12-23T21:33:58.671Z,90.35
2022-12-23T21:36:27.780Z,90.63
2022-12-23T21:38:54.795Z,94.20
2022-12-23T21:41:28.496Z,90.20
2022-12-23T21:43:59.748Z,86.90
2022-12-23T21:46:27.702Z,87.82
2022-12-23T21:48:55.776Z,90.70
2022-12-23T21:51:41.897Z,91.88
2022-12-23T21:54:10.857Z,91.57
2022-12-23T21:56:37.962Z,89.28
2022-12-23T21:59:08.402Z,90.20
2022-12-23T22:01:35.266Z,87.97
2022-12-23T22:04:02.349Z,91.13
2022-12-23T22:06:36.551Z,91.18
2022-12-23T22:09:05.132Z,85.20
2022-12-23T22:11:33.674Z,87.03
2022-12-23T22:14:02.238Z,89.63
2022-12-23T22:16:30.793Z,90.97
2022-12-23T22:18:59.293Z,86.88
2022-12-23T22:21:27.699Z,88.85
2022-12-23T22:23:55.396Z,90.38
2022-12-23T22:26:27.404Z,88.75
2022-12-23T22:28:59.350Z,86.97
2022-12-23T22:31:36.709Z,89.78
2022-12-23T22:34:04.645Z,92.10
2022-12-23T22:36:31.491Z,89.00
2022-12-23T22:38:59.845Z,88.30
2022-12-23T22:41:30.497Z,91.05
2022-12-23T22:43:58.165Z,91.93
2022-12-23T22:46:26.046Z,93.65
2022-12-23T22:48:53.451Z,89.10
2022-12-23T22:51:23.247Z,90.10
2022-12-23T22:53:50.007Z,91.82
2022-12-23T22:56:17.994Z,90.75
2022-12-23T22:58:44.620Z,91.93
2022-12-23T23:01:32.273Z,93.00
2022-12-23T23:04:01.107Z,91.53
2022-12-23T23:06:39.399Z,93.88
2022-12-23T23:09:08.217Z,91.03
2022-12-23T23:11:35.099Z,93.15
2022-12-23T23:14:01.872Z,94.60
2022-12-23T23:16:28.562Z,95.85
2022-12-23T23:18:55.312Z,93.90
2022-12-23T23:21:22.387Z,95.43
2022-12-23T23:23:49.845Z,95.35
2022-12-23T23:26:17.420Z,93.25
2022-12-23T23:28:44.501Z,93.45
2022-12-23T23:33:58.804Z,90.15
2022-12-23T23:36:25.487Z,93.22
2022-12-23T23:38:52.241Z,93.40
2022-12-23T23:41:22.901Z,94.95
2022-12-23T23:43:50.597Z,91.75
2022-12-23T23:46:17.285Z,91.45
2022-12-23T23:48:43.904Z,91.85
2022-12-23T23:51:10.680Z,90.90
2022-12-23T23:53:37.252Z,92.82
2022-12-23T23:56:06.474Z,92.75
2022-12-23T23:58:34.732Z,90.38
